Condicions actuals
Rain
Conditions



Pressió:
1008.92 (hPa) - 29.79 (inHG)
Visibilitat:

10.0 (km) - 6.2 (miles)
Base de Núvols

1829 (Mts) - 6000 (Feets)
   Temperatura
15  °C
Temperatura
10  °C
P. rosada
72  %
 Humitat
   Velocitat del Vent
10  km/h
5  kts
6  mph
2.7  m/s
   Wind Direction
N
45°
E
90°
135°
S
180°
225°
O
270°
315°
 310°

Nord Oest
   Airport Data
LELL
Sabadell Airport
Metar :LELL 110100Z AUTO 31005KT 280V350 9999 -RA FEW060 15/10 Q1009
Tue 11th May 03:00 am
   Raw Metar Info
Raw METAR is the most common format in the world for the transmission of observational weather data. It is highly standardized through the International Civil Aviation Organization (ICAO), which allows it to be understood throughout most of the world.
   API Info
Data Provided by
https://www.checkwx.com/weather/LELL

Aviation Weather providing METAR, TAF, AIRMET, SIGMET and OUTLOOK Weather Reports
   © Info
CSS/SVG/PHP scripts were developed by weather34.com for use in the weather34 template © 2015-2021

Guide Info provided by Metar-Wikipedia